createdAt,value
2018-11-28T00:02:27.844Z,18.37
2018-11-28T00:04:57.630Z,18.30
2018-11-28T00:07:27.370Z,20.48
2018-11-28T00:09:57.218Z,14.80
2018-11-28T00:12:26.940Z,15.98
2018-11-28T00:14:56.692Z,18.95
2018-11-28T00:17:26.417Z,19.98
2018-11-28T00:19:56.745Z,20.30
2018-11-28T00:22:26.521Z,17.10
2018-11-28T00:24:56.866Z,20.25
2018-11-28T00:27:26.643Z,26.12
2018-11-28T00:29:56.299Z,21.02
2018-11-28T00:32:26.205Z,19.57
2018-11-28T00:34:55.898Z,21.27
2018-11-28T00:37:25.683Z,20.05
2018-11-28T00:39:55.408Z,15.50
2018-11-28T00:42:30.288Z,18.52
2018-11-28T00:45:00.309Z,22.80
2018-11-28T00:47:30.004Z,13.60
2018-11-28T00:49:59.836Z,29.42
2018-11-28T00:52:29.547Z,23.38
2018-11-28T00:54:59.199Z,12.00
2018-11-28T00:57:29.460Z,18.35
2018-11-28T00:59:59.374Z,20.57
2018-11-28T01:02:29.622Z,18.17
2018-11-28T01:04:59.575Z,22.75
2018-11-28T01:07:29.307Z,23.57
2018-11-28T01:09:59.019Z,14.93
2018-11-28T01:12:28.812Z,16.70
2018-11-28T01:14:58.775Z,19.57
2018-11-28T01:17:28.471Z,19.48
2018-11-28T01:19:58.118Z,15.83
2018-11-28T01:22:27.946Z,20.70
2018-11-28T01:24:57.680Z,18.65
2018-11-28T01:27:28.275Z,17.92
2018-11-28T01:29:58.007Z,22.65
2018-11-28T01:32:27.726Z,20.72
2018-11-28T01:34:57.415Z,24.63
2018-11-28T01:37:27.325Z,18.62
2018-11-28T01:39:57.007Z,20.35
2018-11-28T01:42:26.711Z,18.87
2018-11-28T01:44:56.600Z,23.60
2018-11-28T01:47:26.492Z,11.45
2018-11-28T01:49:56.230Z,14.73
2018-11-28T01:52:26.064Z,17.37
2018-11-28T01:54:55.803Z,14.38
2018-11-28T01:57:25.432Z,22.55
2018-11-28T01:59:55.111Z,18.40
2018-11-28T02:02:24.808Z,20.95
2018-11-28T02:04:54.476Z,15.10
2018-11-28T02:07:24.253Z,21.17
2018-11-28T02:09:53.999Z,18.52
2018-11-28T02:12:23.783Z,18.85
2018-11-28T02:14:53.547Z,21.10
2018-11-28T02:17:23.744Z,19.12
2018-11-28T02:19:53.523Z,17.95
2018-11-28T02:22:23.239Z,20.10
2018-11-28T02:24:53.308Z,21.23
2018-11-28T02:27:23.042Z,20.08
2018-11-28T02:29:52.901Z,16.90
2018-11-28T02:32:22.567Z,21.10
2018-11-28T02:34:52.276Z,20.52
2018-11-28T02:37:21.971Z,18.87
2018-11-28T02:39:52.003Z,16.73
2018-11-28T02:42:21.738Z,20.20
2018-11-28T02:44:51.574Z,20.62
2018-11-28T02:47:21.284Z,28.62
2018-11-28T02:49:51.061Z,22.05
2018-11-28T02:52:20.759Z,19.15
2018-11-28T02:54:51.163Z,14.07
2018-11-28T02:57:20.895Z,18.45
2018-11-28T02:59:50.638Z,15.60
2018-11-28T03:02:20.317Z,19.37
2018-11-28T03:04:50.117Z,17.17
2018-11-28T03:07:19.876Z,20.70
2018-11-28T03:09:49.652Z,14.60
2018-11-28T03:12:19.718Z,11.33
2018-11-28T03:14:49.568Z,21.73
2018-11-28T03:17:24.540Z,15.18
2018-11-28T03:19:55.028Z,16.42
2018-11-28T03:22:24.762Z,18.27
2018-11-28T03:24:54.491Z,17.00
2018-11-28T03:27:24.301Z,19.32
2018-11-28T03:29:54.027Z,18.98
2018-11-28T03:32:23.877Z,23.00
2018-11-28T03:34:53.659Z,21.55
2018-11-28T03:37:23.636Z,19.90
2018-11-28T03:39:53.423Z,18.82
2018-11-28T03:42:23.135Z,20.00
2018-11-28T03:44:53.136Z,17.40
2018-11-28T03:47:23.757Z,21.45
2018-11-28T03:49:53.425Z,23.83
2018-11-28T03:52:23.265Z,13.93
2018-11-28T03:54:53.691Z,18.10
2018-11-28T03:57:23.363Z,18.98
2018-11-28T03:59:53.027Z,18.95
2018-11-28T04:02:22.803Z,19.35
2018-11-28T04:04:52.554Z,14.63
2018-11-28T04:07:22.217Z,15.48
2018-11-28T04:09:52.254Z,28.23
2018-11-28T04:12:21.892Z,23.38
2018-11-28T04:14:51.621Z,14.63
2018-11-28T04:17:21.312Z,17.20
2018-11-28T04:19:51.039Z,19.37
2018-11-28T04:22:20.724Z,17.20
2018-11-28T04:24:50.399Z,23.87
2018-11-28T04:27:20.272Z,19.57
2018-11-28T04:29:50.136Z,23.65
2018-11-28T04:32:20.144Z,20.35
2018-11-28T04:34:49.970Z,18.42
2018-11-28T04:37:19.614Z,21.27
2018-11-28T04:39:49.364Z,21.52
2018-11-28T04:42:19.894Z,17.52
2018-11-28T04:44:49.814Z,17.87
2018-11-28T04:47:20.077Z,21.02
2018-11-28T04:49:50.447Z,16.65
2018-11-28T04:52:20.266Z,22.20
2018-11-28T04:54:49.958Z,21.52
2018-11-28T04:57:19.824Z,18.42
2018-11-28T04:59:49.504Z,20.65
2018-11-28T05:02:19.526Z,20.30
2018-11-28T05:04:49.408Z,22.82
2018-11-28T05:08:37.019Z,15.85
2018-11-28T05:11:07.009Z,18.55
2018-11-28T05:13:36.972Z,22.32
2018-11-28T05:16:08.345Z,19.90
2018-11-28T05:18:38.736Z,21.25
2018-11-28T05:21:08.464Z,20.50
2018-11-28T05:23:38.319Z,22.95
2018-11-28T05:26:08.386Z,24.87
2018-11-28T05:28:38.065Z,20.37
2018-11-28T05:31:08.349Z,19.00
2018-11-28T05:33:38.262Z,16.15
2018-11-28T05:36:07.976Z,21.85
2018-11-28T05:38:37.880Z,17.55
2018-11-28T05:41:07.731Z,24.30
2018-11-28T05:43:37.452Z,22.87
2018-11-28T05:46:07.513Z,27.35
2018-11-28T05:48:37.415Z,20.45
2018-11-28T05:51:07.302Z,13.75
2018-11-28T05:53:36.995Z,24.87
2018-11-28T05:56:07.295Z,22.90
2018-11-28T05:58:37.009Z,19.50
2018-11-28T06:01:07.336Z,18.85
2018-11-28T06:03:37.062Z,22.62
2018-11-28T06:06:07.063Z,18.60
2018-11-28T06:08:36.831Z,27.60
2018-11-28T06:11:07.084Z,19.98
2018-11-28T06:13:36.852Z,19.67
2018-11-28T06:16:07.140Z,19.90
2018-11-28T06:18:36.939Z,23.07
2018-11-28T06:21:06.936Z,25.25
2018-11-28T06:23:36.723Z,20.25
2018-11-28T06:26:06.940Z,24.15
2018-11-28T06:28:36.684Z,12.65
2018-11-28T06:31:06.562Z,19.12
2018-11-28T06:33:36.359Z,20.60
2018-11-28T06:36:06.815Z,24.82
2018-11-28T06:38:36.553Z,17.40
2018-11-28T06:41:06.959Z,19.67
2018-11-28T06:43:36.728Z,21.40
2018-11-28T06:46:06.881Z,20.95
2018-11-28T06:48:36.719Z,21.55
2018-11-28T06:51:07.176Z,21.05
2018-11-28T06:53:37.185Z,26.48
2018-11-28T06:56:13.711Z,18.95
2018-11-28T06:58:43.448Z,23.83
2018-11-28T07:01:13.252Z,18.95
2018-11-28T07:03:42.948Z,22.98
2018-11-28T07:06:12.873Z,23.87
2018-11-28T07:08:42.756Z,18.57
2018-11-28T07:11:13.235Z,16.17
2018-11-28T07:13:42.952Z,21.65
2018-11-28T07:16:12.784Z,14.65
2018-11-28T07:18:59.323Z,19.07
2018-11-28T07:21:29.142Z,21.70
2018-11-28T07:23:58.764Z,17.70
2018-11-28T07:26:28.912Z,19.77
2018-11-28T07:28:58.716Z,18.12
2018-11-28T07:31:28.573Z,17.23
2018-11-28T07:33:58.447Z,21.97
2018-11-28T07:36:28.532Z,18.57
2018-11-28T07:38:58.277Z,22.40
2018-11-28T07:41:28.728Z,21.75
2018-11-28T07:43:58.544Z,13.45
2018-11-28T07:46:28.259Z,17.00
2018-11-28T07:48:58.025Z,18.65
2018-11-28T07:51:27.741Z,23.57
2018-11-28T07:53:57.707Z,22.98
2018-11-28T07:56:27.549Z,21.77
2018-11-28T07:58:57.488Z,22.10
2018-11-28T08:01:27.217Z,19.67
2018-11-28T08:03:56.924Z,21.23
2018-11-28T08:06:26.600Z,17.17
2018-11-28T08:08:59.252Z,19.65
2018-11-28T08:11:29.097Z,17.07
2018-11-28T08:13:58.919Z,21.42
2018-11-28T08:16:28.665Z,23.27
2018-11-28T08:18:58.467Z,18.10
2018-11-28T08:21:28.226Z,18.30
2018-11-28T08:23:57.977Z,19.77
2018-11-28T08:26:27.781Z,17.60
2018-11-28T08:28:57.565Z,19.87
2018-11-28T08:31:27.312Z,21.73
2018-11-28T08:33:56.984Z,18.05
2018-11-28T08:36:26.814Z,18.75
2018-11-28T08:38:56.510Z,14.05
2018-11-28T08:41:26.380Z,22.93
2018-11-28T08:43:56.159Z,20.43
2018-11-28T08:46:26.987Z,17.32
2018-11-28T08:48:56.492Z,20.40
2018-11-28T08:51:26.814Z,25.08
2018-11-28T08:53:56.615Z,20.02
2018-11-28T08:56:26.279Z,22.62
2018-11-28T08:58:56.017Z,20.20
2018-11-28T09:01:25.705Z,23.42
2018-11-28T09:03:55.408Z,19.02
2018-11-28T09:06:25.250Z,20.20
2018-11-28T09:08:55.236Z,22.32
2018-11-28T09:11:24.947Z,16.60
2018-11-28T09:13:54.643Z,21.55
2018-11-28T09:16:24.564Z,19.35
2018-11-28T09:18:54.343Z,17.95
2018-11-28T09:21:24.044Z,22.52
2018-11-28T09:23:53.940Z,23.38
2018-11-28T09:26:24.016Z,21.35
2018-11-28T09:28:53.723Z,17.35
2018-11-28T09:31:23.485Z,15.20
2018-11-28T09:33:53.281Z,19.60
2018-11-28T09:36:23.151Z,22.27
2018-11-28T09:38:52.852Z,20.37
2018-11-28T09:41:22.733Z,13.15
2018-11-28T09:43:52.488Z,16.35
2018-11-28T09:46:22.170Z,18.27
2018-11-28T09:48:52.056Z,19.35
2018-11-28T09:51:21.749Z,23.02
2018-11-28T09:53:51.436Z,15.88
2018-11-28T09:56:21.127Z,18.42
2018-11-28T09:58:50.963Z,19.62
2018-11-28T10:01:20.646Z,16.07
2018-11-28T10:03:50.438Z,18.75
2018-11-28T10:06:20.126Z,27.00
2018-11-28T10:08:49.891Z,19.42
2018-11-28T10:11:19.600Z,24.87
2018-11-28T10:13:49.342Z,23.73
2018-11-28T10:16:19.127Z,26.02
2018-11-28T10:18:48.900Z,22.48
2018-11-28T10:21:18.756Z,16.62
2018-11-28T10:23:48.568Z,18.35
2018-11-28T10:26:18.213Z,14.63
2018-11-28T10:28:48.207Z,20.65
2018-11-28T10:31:17.965Z,18.30
2018-11-28T10:33:47.787Z,18.57
2018-11-28T10:36:17.497Z,21.25
2018-11-28T10:38:47.299Z,20.15
2018-11-28T10:41:16.961Z,20.82
2018-11-28T10:43:46.840Z,23.22
2018-11-28T10:46:16.519Z,17.77
2018-11-28T10:48:46.185Z,21.48
2018-11-28T10:51:15.940Z,16.07
2018-11-28T10:53:45.734Z,20.92
2018-11-28T10:56:15.463Z,20.82
2018-11-28T10:58:45.158Z,23.10
2018-11-28T11:01:20.084Z,21.57
2018-11-28T11:03:56.089Z,23.95
2018-11-28T11:06:32.002Z,17.80
2018-11-28T11:09:06.749Z,20.32
2018-11-28T11:11:41.559Z,15.68
2018-11-28T11:14:16.640Z,17.92
2018-11-28T11:16:46.356Z,22.37
2018-11-28T11:19:16.135Z,17.95
2018-11-28T11:21:46.388Z,18.85
2018-11-28T11:24:16.839Z,17.40
2018-11-28T11:26:46.589Z,19.02
2018-11-28T11:29:16.358Z,14.55
2018-11-28T11:31:46.102Z,14.87
2018-11-28T11:34:15.985Z,10.85
2018-11-28T11:36:45.679Z,20.12
2018-11-28T11:39:15.479Z,11.50
2018-11-28T11:41:45.297Z,14.93
2018-11-28T11:44:15.159Z,16.73
2018-11-28T11:46:44.857Z,16.37
2018-11-28T11:49:14.552Z,14.50
2018-11-28T11:51:44.381Z,15.38
2018-11-28T11:54:14.204Z,18.50
2018-11-28T11:56:44.523Z,14.28
2018-11-28T11:59:14.202Z,13.70
2018-11-28T12:01:44.045Z,13.20
2018-11-28T12:04:13.816Z,14.15
2018-11-28T12:06:43.664Z,18.77
2018-11-28T12:09:13.344Z,13.53
2018-11-28T12:11:43.073Z,13.28
2018-11-28T12:14:12.745Z,12.65
2018-11-28T12:16:42.508Z,15.35
2018-11-28T12:19:12.215Z,11.28
2018-11-28T12:21:43.581Z,13.08
2018-11-28T12:24:12.424Z,11.25
2018-11-28T12:26:42.236Z,15.25
2018-11-28T12:29:11.940Z,13.13
2018-11-28T12:31:41.788Z,15.53
2018-11-28T12:34:11.572Z,17.25
2018-11-28T12:36:41.300Z,12.95
2018-11-28T12:39:11.777Z,11.60
2018-11-28T12:41:42.098Z,9.80
2018-11-28T12:44:12.006Z,11.50
2018-11-28T12:46:41.811Z,10.55
2018-11-28T12:49:11.491Z,10.70
2018-11-28T12:51:41.503Z,13.53
2018-11-28T12:54:11.220Z,14.40
2018-11-28T12:56:40.956Z,14.10
2018-11-28T12:59:12.222Z,10.50
2018-11-28T13:01:42.196Z,14.25
2018-11-28T13:04:11.851Z,10.65
2018-11-28T13:06:41.623Z,12.28
2018-11-28T13:09:11.344Z,11.90
2018-11-28T13:11:41.238Z,14.80
2018-11-28T13:14:11.178Z,9.47
2018-11-28T13:16:41.319Z,11.40
2018-11-28T13:19:11.108Z,14.35
2018-11-28T13:21:40.907Z,9.48
2018-11-28T13:24:10.846Z,12.15
2018-11-28T13:26:40.585Z,11.43
2018-11-28T13:29:10.373Z,15.32
2018-11-28T13:31:40.271Z,12.28
2018-11-28T13:34:09.936Z,13.98
2018-11-28T13:36:39.746Z,11.22
2018-11-28T13:39:09.612Z,10.78
2018-11-28T13:41:39.266Z,13.00
2018-11-28T13:44:09.130Z,8.28
2018-11-28T13:46:39.030Z,11.05
2018-11-28T13:49:08.816Z,15.55
2018-11-28T13:51:38.510Z,10.60
2018-11-28T13:54:21.036Z,9.90
2018-11-28T13:59:08.502Z,9.93
2018-11-28T14:01:38.282Z,11.43
2018-11-28T14:04:08.045Z,14.60
2018-11-28T14:06:37.789Z,9.63
2018-11-28T14:09:09.363Z,11.18
2018-11-28T14:11:39.261Z,11.38
2018-11-28T14:14:08.983Z,13.65
2018-11-28T14:16:38.940Z,12.68
2018-11-28T14:19:08.676Z,12.98
2018-11-28T14:21:38.487Z,12.78
2018-11-28T14:24:08.254Z,8.65
2018-11-28T14:26:38.318Z,8.48
2018-11-28T14:29:08.752Z,12.25
2018-11-28T14:31:38.637Z,12.95
2018-11-28T14:34:08.694Z,12.10
2018-11-28T14:36:38.505Z,12.13
2018-11-28T14:39:09.956Z,14.13
2018-11-28T14:41:40.378Z,21.97
2018-11-28T14:44:10.707Z,11.10
2018-11-28T14:46:40.463Z,13.55
2018-11-28T14:49:10.792Z,12.05
2018-11-28T14:51:40.883Z,13.95
2018-11-28T14:54:10.685Z,11.53
2018-11-28T14:56:40.507Z,12.15
2018-11-28T14:59:11.224Z,13.05
2018-11-28T15:01:41.013Z,12.37
2018-11-28T15:04:10.684Z,12.13
2018-11-28T15:06:53.606Z,13.48
2018-11-28T15:09:30.640Z,9.25
2018-11-28T15:12:00.756Z,13.60
2018-11-28T15:14:30.570Z,15.13
2018-11-28T15:17:00.558Z,12.25
2018-11-28T15:19:30.265Z,13.05
2018-11-28T15:21:59.967Z,12.65
2018-11-28T15:24:29.780Z,15.50
2018-11-28T15:26:59.447Z,15.20
2018-11-28T15:29:29.432Z,14.80
2018-11-28T15:31:59.338Z,15.40
2018-11-28T15:34:29.326Z,15.32
2018-11-28T15:36:59.120Z,10.93
2018-11-28T15:39:28.989Z,10.82
2018-11-28T15:41:58.903Z,14.70
2018-11-28T15:44:28.788Z,11.35
2018-11-28T15:46:58.530Z,13.38
2018-11-28T15:49:28.387Z,13.93
2018-11-28T15:51:58.183Z,15.88
2018-11-28T15:54:28.082Z,14.60
2018-11-28T15:56:57.985Z,15.08
2018-11-28T15:59:27.936Z,14.87
2018-11-28T16:01:57.701Z,16.87
2018-11-28T16:04:27.442Z,16.50
2018-11-28T16:06:57.172Z,15.60
2018-11-28T16:09:32.190Z,12.95
2018-11-28T16:12:01.977Z,11.90
2018-11-28T16:14:32.160Z,19.60
2018-11-28T16:17:01.873Z,20.65
2018-11-28T16:19:31.676Z,18.25
2018-11-28T16:22:01.608Z,16.20
2018-11-28T16:24:31.560Z,18.45
2018-11-28T16:27:02.060Z,15.50
2018-11-28T16:29:31.963Z,18.73
2018-11-28T16:32:01.702Z,18.80
2018-11-28T16:34:32.773Z,19.77
2018-11-28T16:37:02.489Z,14.93
2018-11-28T16:39:32.281Z,17.25
2018-11-28T16:42:02.154Z,20.68
2018-11-28T16:44:31.999Z,14.65
2018-11-28T16:47:01.795Z,14.28
2018-11-28T16:49:31.614Z,17.05
2018-11-28T16:52:01.465Z,13.22
2018-11-28T16:54:32.196Z,18.48
2018-11-28T16:57:01.949Z,17.45
2018-11-28T16:59:31.930Z,19.50
2018-11-28T17:02:02.507Z,17.75
2018-11-28T17:04:32.271Z,20.80
2018-11-28T17:07:01.991Z,18.00
2018-11-28T17:09:31.692Z,21.23
2018-11-28T17:12:01.404Z,18.90
2018-11-28T17:14:31.266Z,21.02
2018-11-28T17:17:01.047Z,17.07
2018-11-28T17:19:31.367Z,14.50
2018-11-28T17:22:01.656Z,17.10
2018-11-28T17:24:31.680Z,18.77
2018-11-28T17:27:01.501Z,23.77
2018-11-28T17:29:31.263Z,18.07
2018-11-28T17:32:01.079Z,18.73
2018-11-28T17:34:31.569Z,18.15
2018-11-28T17:37:01.482Z,21.42
2018-11-28T17:39:31.421Z,18.30
2018-11-28T17:42:01.291Z,16.62
2018-11-28T17:44:31.120Z,21.75
2018-11-28T17:47:00.948Z,17.15
2018-11-28T17:49:30.923Z,15.32
2018-11-28T17:52:00.929Z,14.53
2018-11-28T17:54:30.659Z,13.30
2018-11-28T17:57:01.064Z,15.38
2018-11-28T17:59:37.415Z,17.85
2018-11-28T18:02:07.618Z,14.73
2018-11-28T18:04:37.403Z,16.95
2018-11-28T18:07:07.790Z,20.45
2018-11-28T18:09:37.522Z,15.28
2018-11-28T18:12:08.296Z,12.98
2018-11-28T18:14:38.138Z,14.53
2018-11-28T18:17:08.140Z,14.43
2018-11-28T18:19:38.595Z,17.12
2018-11-28T18:22:08.511Z,14.75
2018-11-28T18:24:39.349Z,17.45
2018-11-28T18:27:09.100Z,13.58
2018-11-28T18:29:38.858Z,13.18
2018-11-28T18:32:08.684Z,14.05
2018-11-28T18:34:39.303Z,16.30
2018-11-28T18:37:09.701Z,22.65
2018-11-28T18:39:40.925Z,14.28
2018-11-28T18:42:11.564Z,13.20
2018-11-28T18:44:41.636Z,13.48
2018-11-28T18:47:11.638Z,19.73
2018-11-28T18:49:41.394Z,20.48
2018-11-28T18:52:12.841Z,15.00
2018-11-28T18:54:43.095Z,12.63
2018-11-28T18:57:13.014Z,14.55
2018-11-28T18:59:43.482Z,15.32
2018-11-28T19:02:13.028Z,14.55
2018-11-28T19:04:42.827Z,15.32
2018-11-28T19:07:13.157Z,10.80
2018-11-28T19:09:49.245Z,12.58
2018-11-28T19:12:19.808Z,13.98
2018-11-28T19:14:50.534Z,10.00
2018-11-28T19:17:20.362Z,14.47
2018-11-28T19:19:50.484Z,10.25
2018-11-28T19:22:20.322Z,14.07
2018-11-28T19:24:50.191Z,15.32
2018-11-28T19:27:20.161Z,12.20
2018-11-28T19:29:49.969Z,11.12
2018-11-28T19:32:20.429Z,11.28
2018-11-28T19:34:52.297Z,11.18
2018-11-28T19:37:22.182Z,14.00
2018-11-28T19:39:52.002Z,14.43
2018-11-28T19:42:22.030Z,10.78
2018-11-28T19:44:52.106Z,10.08
2018-11-28T19:47:23.018Z,8.60
2018-11-28T19:49:52.957Z,12.68
2018-11-28T19:52:22.861Z,13.03
2018-11-28T19:54:52.680Z,9.18
2018-11-28T19:57:22.921Z,11.53
2018-11-28T19:59:53.813Z,9.68
2018-11-28T20:02:25.039Z,9.23
2018-11-28T20:04:55.491Z,9.90
2018-11-28T20:07:26.635Z,12.00
2018-11-28T20:09:58.365Z,11.97
2018-11-28T20:12:29.124Z,12.23
2018-11-28T20:14:59.120Z,11.08
2018-11-28T20:17:28.981Z,14.90
2018-11-28T20:19:58.774Z,10.00
2018-11-28T20:22:28.736Z,13.98
2018-11-28T20:24:58.515Z,10.43
2018-11-28T20:27:28.336Z,15.32
2018-11-28T20:29:59.434Z,10.43
2018-11-28T20:32:30.477Z,11.50
2018-11-28T20:35:03.006Z,13.53
2018-11-28T20:37:29.677Z,10.65
2018-11-28T20:39:59.905Z,13.80
2018-11-28T20:42:29.843Z,17.30
2018-11-28T20:44:59.578Z,14.45
2018-11-28T20:47:29.395Z,12.53
2018-11-28T20:49:59.195Z,10.58
2018-11-28T20:52:32.168Z,10.72
2018-11-28T20:55:02.556Z,13.25
2018-11-28T20:57:32.448Z,8.58
2018-11-28T21:00:02.303Z,9.53
2018-11-28T21:02:32.416Z,10.30
2018-11-28T21:05:02.324Z,9.73
2018-11-28T21:07:32.185Z,9.33
2018-11-28T21:10:07.175Z,8.95
2018-11-28T21:12:36.996Z,11.22
2018-11-28T21:15:07.109Z,8.40
2018-11-28T21:17:36.912Z,7.40
2018-11-28T21:20:13.907Z,11.20
2018-11-28T21:22:45.146Z,10.32
2018-11-28T21:25:15.015Z,7.78
2018-11-28T21:27:45.028Z,9.93
2018-11-28T21:30:18.167Z,7.37
2018-11-28T21:32:48.398Z,8.50
2018-11-28T21:35:51.759Z,9.10
2018-11-28T21:38:21.578Z,9.15
2018-11-28T21:40:51.290Z,9.50
2018-11-28T21:43:21.668Z,7.35
2018-11-28T21:45:53.333Z,9.05
2018-11-28T21:48:23.209Z,10.38
2018-11-28T21:50:53.652Z,7.37
2018-11-28T21:53:24.255Z,7.78
2018-11-28T21:55:55.108Z,9.23
2018-11-28T21:58:24.894Z,10.05
2018-11-28T22:00:54.626Z,7.35
2018-11-28T22:03:24.417Z,8.60
2018-11-28T22:05:54.206Z,8.98
2018-11-28T22:08:25.127Z,7.10
2018-11-28T22:10:54.949Z,10.65
2018-11-28T22:13:24.684Z,8.43
2018-11-28T22:15:54.903Z,8.15
2018-11-28T22:18:24.735Z,6.15
2018-11-28T22:20:55.194Z,7.50
2018-11-28T22:23:24.930Z,8.48
2018-11-28T22:25:54.687Z,6.40
2018-11-28T22:28:24.500Z,5.90
2018-11-28T22:30:54.308Z,7.17
2018-11-28T22:33:24.825Z,11.30
2018-11-28T22:35:54.620Z,6.78
2018-11-28T22:38:24.427Z,12.28
2018-11-28T22:40:54.159Z,7.40
2018-11-28T22:43:24.592Z,5.78
2018-11-28T22:45:54.319Z,5.75
2018-11-28T22:48:24.082Z,6.92
2018-11-28T22:50:54.939Z,5.37
2018-11-28T22:53:25.407Z,7.33
2018-11-28T22:55:55.796Z,5.75
2018-11-28T22:58:25.650Z,6.28
2018-11-28T23:01:00.923Z,8.73
2018-11-28T23:03:30.608Z,6.05
2018-11-28T23:06:00.473Z,6.65
2018-11-28T23:08:30.315Z,4.78
2018-11-28T23:11:00.175Z,6.08
2018-11-28T23:13:29.974Z,6.45
2018-11-28T23:15:59.709Z,6.03
2018-11-28T23:18:29.432Z,7.22
2018-11-28T23:20:59.139Z,4.62
2018-11-28T23:23:28.839Z,6.58
2018-11-28T23:25:58.918Z,6.05
2018-11-28T23:28:28.747Z,3.95
2018-11-28T23:30:58.458Z,9.55
2018-11-28T23:33:28.295Z,6.45
2018-11-28T23:35:58.013Z,5.33
2018-11-28T23:38:28.161Z,6.58
2018-11-28T23:40:57.896Z,5.58
2018-11-28T23:43:27.654Z,8.18
2018-11-28T23:45:57.375Z,5.00
2018-11-28T23:48:27.125Z,5.28
2018-11-28T23:50:57.054Z,4.97
2018-11-28T23:53:26.787Z,4.10
2018-11-28T23:55:56.497Z,5.03
2018-11-28T23:58:26.185Z,6.58
